sensor_id;sensor_type;location;lat;lon;timestamp;P1;P2;P0
70436;PMS5003;57877;39.750;-104.894;2023-06-26T00:00:44;0;0;
70436;PMS5003;57877;39.750;-104.894;2023-06-26T00:03:09;0;0;
70436;PMS5003;57877;39.750;-104.894;2023-06-26T00:05:34;2;2;
70436;PMS5003;57877;39.750;-104.894;2023-06-26T00:07:59;0;0;
70436;PMS5003;57877;39.750;-104.894;2023-06-26T00:10:24;0;0;
70436;PMS5003;57877;39.750;-104.894;2023-06-26T00:12:49;1;0;
70436;PMS5003;57877;39.750;-104.894;2023-06-26T00:15:14;0;0;
70436;PMS5003;57877;39.750;-104.894;2023-06-26T00:17:39;1;0;
70436;PMS5003;57877;39.750;-104.894;2023-06-26T00:20:05;1;1;
70436;PMS5003;57877;39.750;-104.894;2023-06-26T00:22:29;1;1;
70436;PMS5003;57877;39.750;-104.894;2023-06-26T00:24:54;1;1;
70436;PMS5003;57877;39.750;-104.894;2023-06-26T00:27:20;1;1;
70436;PMS5003;57877;39.750;-104.894;2023-06-26T00:29:45;1;0;
70436;PMS5003;57877;39.750;-104.894;2023-06-26T00:32:10;0;0;
70436;PMS5003;57877;39.750;-104.894;2023-06-26T00:34:35;0;0;
70436;PMS5003;57877;39.750;-104.894;2023-06-26T00:37:00;0;0;
70436;PMS5003;57877;39.750;-104.894;2023-06-26T00:39:26;0;0;
70436;PMS5003;57877;39.750;-104.894;2023-06-26T00:41:52;0;0;
70436;PMS5003;57877;39.750;-104.894;2023-06-26T00:44:18;0;0;
70436;PMS5003;57877;39.750;-104.894;2023-06-26T00:46:44;0;0;
70436;PMS5003;57877;39.750;-104.894;2023-06-26T00:49:08;0;0;
70436;PMS5003;57877;39.750;-104.894;2023-06-26T00:51:33;0;0;
70436;PMS5003;57877;39.750;-104.894;2023-06-26T00:54:00;0;0;
70436;PMS5003;57877;39.750;-104.894;2023-06-26T00:56:26;0;0;
70436;PMS5003;57877;39.750;-104.894;2023-06-26T00:58:52;0;0;
70436;PMS5003;57877;39.750;-104.894;2023-06-26T01:01:18;0;0;
70436;PMS5003;57877;39.750;-104.894;2023-06-26T01:03:43;0;0;
70436;PMS5003;57877;39.750;-104.894;2023-06-26T01:06:08;0;0;
70436;PMS5003;57877;39.750;-104.894;2023-06-26T01:08:33;0;0;
70436;PMS5003;57877;39.750;-104.894;2023-06-26T01:10:58;0;0;
70436;PMS5003;57877;39.750;-104.894;2023-06-26T01:13:23;0;0;
70436;PMS5003;57877;39.750;-104.894;2023-06-26T01:15:48;0;0;
70436;PMS5003;57877;39.750;-104.894;2023-06-26T01:18:13;0;0;
70436;PMS5003;57877;39.750;-104.894;2023-06-26T01:20:39;1;1;
70436;PMS5003;57877;39.750;-104.894;2023-06-26T01:23:07;0;0;
70436;PMS5003;57877;39.750;-104.894;2023-06-26T01:25:32;0;0;
70436;PMS5003;57877;39.750;-104.894;2023-06-26T01:27:53;0;0;
70436;PMS5003;57877;39.750;-104.894;2023-06-26T01:30:18;1;1;
70436;PMS5003;57877;39.750;-104.894;2023-06-26T01:32:43;0;0;
70436;PMS5003;57877;39.750;-104.894;2023-06-26T01:35:08;0;0;
70436;PMS5003;57877;39.750;-104.894;2023-06-26T01:37:33;0;0;
70436;PMS5003;57877;39.750;-104.894;2023-06-26T01:39:58;0;0;
70436;PMS5003;57877;39.750;-104.894;2023-06-26T01:42:23;0;0;
70436;PMS5003;57877;39.750;-104.894;2023-06-26T01:44:49;0;0;
70436;PMS5003;57877;39.750;-104.894;2023-06-26T01:47:16;1;1;
70436;PMS5003;57877;39.750;-104.894;2023-06-26T01:49:42;0;0;
70436;PMS5003;57877;39.750;-104.894;2023-06-26T01:52:07;0;0;
70436;PMS5003;57877;39.750;-104.894;2023-06-26T01:54:29;0;0;
70436;PMS5003;57877;39.750;-104.894;2023-06-26T01:56:54;0;0;
70436;PMS5003;57877;39.750;-104.894;2023-06-26T01:59:19;0;0;
70436;PMS5003;57877;39.750;-104.894;2023-06-26T02:01:44;0;0;
70436;PMS5003;57877;39.750;-104.894;2023-06-26T02:04:09;0;0;
70436;PMS5003;57877;39.750;-104.894;2023-06-26T02:06:34;0;0;
70436;PMS5003;57877;39.750;-104.894;2023-06-26T02:08:59;0;0;
70436;PMS5003;57877;39.750;-104.894;2023-06-26T02:11:24;0;0;
70436;PMS5003;57877;39.750;-104.894;2023-06-26T02:13:49;0;0;
70436;PMS5003;57877;39.750;-104.894;2023-06-26T02:16:14;3;3;
70436;PMS5003;57877;39.750;-104.894;2023-06-26T02:18:40;0;0;
70436;PMS5003;57877;39.750;-104.894;2023-06-26T02:21:05;0;0;
70436;PMS5003;57877;39.750;-104.894;2023-06-26T02:23:30;0;0;
70436;PMS5003;57877;39.750;-104.894;2023-06-26T02:25:55;0;0;
70436;PMS5003;57877;39.750;-104.894;2023-06-26T02:28:20;0;0;
70436;PMS5003;57877;39.750;-104.894;2023-06-26T02:30:46;0;0;
70436;PMS5003;57877;39.750;-104.894;2023-06-26T02:33:12;0;0;
70436;PMS5003;57877;39.750;-104.894;2023-06-26T02:35:37;0;0;
70436;PMS5003;57877;39.750;-104.894;2023-06-26T02:38:03;0;0;
70436;PMS5003;57877;39.750;-104.894;2023-06-26T02:40:29;0;0;
70436;PMS5003;57877;39.750;-104.894;2023-06-26T02:42:54;0;0;
70436;PMS5003;57877;39.750;-104.894;2023-06-26T02:45:19;0;0;
70436;PMS5003;57877;39.750;-104.894;2023-06-26T02:47:44;0;0;
70436;PMS5003;57877;39.750;-104.894;2023-06-26T02:50:09;0;0;
70436;PMS5003;57877;39.750;-104.894;2023-06-26T02:52:35;0;0;
70436;PMS5003;57877;39.750;-104.894;2023-06-26T02:55:00;0;0;
70436;PMS5003;57877;39.750;-104.894;2023-06-26T02:57:26;0;0;
70436;PMS5003;57877;39.750;-104.894;2023-06-26T02:59:51;0;0;
70436;PMS5003;57877;39.750;-104.894;2023-06-26T03:02:17;0;0;
70436;PMS5003;57877;39.750;-104.894;2023-06-26T03:04:43;0;0;
70436;PMS5003;57877;39.750;-104.894;2023-06-26T03:07:09;13;12;
70436;PMS5003;57877;39.750;-104.894;2023-06-26T03:09:34;19;18;
70436;PMS5003;57877;39.750;-104.894;2023-06-26T03:12:00;0;0;
70436;PMS5003;57877;39.750;-104.894;2023-06-26T03:14:26;0;0;
70436;PMS5003;57877;39.750;-104.894;2023-06-26T03:16:51;0;0;
70436;PMS5003;57877;39.750;-104.894;2023-06-26T03:19:16;0;0;
70436;PMS5003;57877;39.750;-104.894;2023-06-26T03:21:41;1;1;
70436;PMS5003;57877;39.750;-104.894;2023-06-26T03:24:06;0;0;
70436;PMS5003;57877;39.750;-104.894;2023-06-26T03:26:31;0;0;
70436;PMS5003;57877;39.750;-104.894;2023-06-26T03:28:56;1;1;
70436;PMS5003;57877;39.750;-104.894;2023-06-26T03:31:22;0;0;
70436;PMS5003;57877;39.750;-104.894;2023-06-26T03:33:47;0;0;
70436;PMS5003;57877;39.750;-104.894;2023-06-26T03:36:12;0;0;
70436;PMS5003;57877;39.750;-104.894;2023-06-26T03:38:37;2;2;
70436;PMS5003;57877;39.750;-104.894;2023-06-26T03:41:02;0;0;
70436;PMS5003;57877;39.750;-104.894;2023-06-26T03:43:27;0;0;
70436;PMS5003;57877;39.750;-104.894;2023-06-26T03:45:52;0;0;
70436;PMS5003;57877;39.750;-104.894;2023-06-26T03:48:17;0;0;
70436;PMS5003;57877;39.750;-104.894;2023-06-26T03:50:42;0;0;
70436;PMS5003;57877;39.750;-104.894;2023-06-26T03:53:07;0;0;
70436;PMS5003;57877;39.750;-104.894;2023-06-26T03:55:32;0;0;
70436;PMS5003;57877;39.750;-104.894;2023-06-26T03:57:57;0;0;
70436;PMS5003;57877;39.750;-104.894;2023-06-26T04:00:22;0;0;
70436;PMS5003;57877;39.750;-104.894;2023-06-26T04:02:47;0;0;
70436;PMS5003;57877;39.750;-104.894;2023-06-26T04:05:13;0;0;
70436;PMS5003;57877;39.750;-104.894;2023-06-26T04:07:39;0;0;
70436;PMS5003;57877;39.750;-104.894;2023-06-26T04:10:06;0;0;
70436;PMS5003;57877;39.750;-104.894;2023-06-26T04:12:36;0;0;
70436;PMS5003;57877;39.750;-104.894;2023-06-26T04:18:19;0;0;
70436;PMS5003;57877;39.750;-104.894;2023-06-26T05:41:23;0;0;
70436;PMS5003;57877;39.750;-104.894;2023-06-26T05:43:47;0;0;
70436;PMS5003;57877;39.750;-104.894;2023-06-26T05:46:12;0;0;
70436;PMS5003;57877;39.750;-104.894;2023-06-26T05:48:37;0;0;
70436;PMS5003;57877;39.750;-104.894;2023-06-26T05:51:02;0;0;
70436;PMS5003;57877;39.750;-104.894;2023-06-26T05:53:27;0;0;
70436;PMS5003;57877;39.750;-104.894;2023-06-26T05:55:52;0;0;
70436;PMS5003;57877;39.750;-104.894;2023-06-26T05:58:17;0;0;
70436;PMS5003;57877;39.750;-104.894;2023-06-26T06:00:42;0;0;
70436;PMS5003;57877;39.750;-104.894;2023-06-26T06:03:09;1;0;
70436;PMS5003;57877;39.750;-104.894;2023-06-26T06:05:32;1;0;
70436;PMS5003;57877;39.750;-104.894;2023-06-26T06:07:57;0;0;
70436;PMS5003;57877;39.750;-104.894;2023-06-26T06:10:22;1;1;
70436;PMS5003;57877;39.750;-104.894;2023-06-26T06:12:47;0;0;
70436;PMS5003;57877;39.750;-104.894;2023-06-26T06:15:12;0;0;
70436;PMS5003;57877;39.750;-104.894;2023-06-26T06:17:37;0;0;
70436;PMS5003;57877;39.750;-104.894;2023-06-26T06:20:03;0;0;
70436;PMS5003;57877;39.750;-104.894;2023-06-26T06:22:28;0;0;
70436;PMS5003;57877;39.750;-104.894;2023-06-26T06:24:53;0;0;
70436;PMS5003;57877;39.750;-104.894;2023-06-26T06:27:18;0;0;
70436;PMS5003;57877;39.750;-104.894;2023-06-26T06:29:43;0;0;
70436;PMS5003;57877;39.750;-104.894;2023-06-26T06:32:08;0;0;
70436;PMS5003;57877;39.750;-104.894;2023-06-26T06:34:33;1;1;
70436;PMS5003;57877;39.750;-104.894;2023-06-26T06:36:58;0;0;
70436;PMS5003;57877;39.750;-104.894;2023-06-26T06:39:23;0;0;
70436;PMS5003;57877;39.750;-104.894;2023-06-26T06:41:48;0;0;
70436;PMS5003;57877;39.750;-104.894;2023-06-26T06:44:13;0;0;
70436;PMS5003;57877;39.750;-104.894;2023-06-26T06:46:38;0;0;
70436;PMS5003;57877;39.750;-104.894;2023-06-26T06:49:03;0;0;
70436;PMS5003;57877;39.750;-104.894;2023-06-26T06:51:28;0;0;
70436;PMS5003;57877;39.750;-104.894;2023-06-26T06:53:53;0;0;
70436;PMS5003;57877;39.750;-104.894;2023-06-26T06:56:18;1;0;
70436;PMS5003;57877;39.750;-104.894;2023-06-26T06:58:43;0;0;
70436;PMS5003;57877;39.750;-104.894;2023-06-26T07:01:09;0;0;
70436;PMS5003;57877;39.750;-104.894;2023-06-26T07:03:33;1;1;
70436;PMS5003;57877;39.750;-104.894;2023-06-26T07:05:58;0;0;
70436;PMS5003;57877;39.750;-104.894;2023-06-26T07:08:23;0;0;
70436;PMS5003;57877;39.750;-104.894;2023-06-26T07:10:48;0;0;
70436;PMS5003;57877;39.750;-104.894;2023-06-26T07:13:13;0;0;
70436;PMS5003;57877;39.750;-104.894;2023-06-26T07:15:39;0;0;
70436;PMS5003;57877;39.750;-104.894;2023-06-26T07:18:04;0;0;
70436;PMS5003;57877;39.750;-104.894;2023-06-26T07:20:29;0;0;
70436;PMS5003;57877;39.750;-104.894;2023-06-26T07:22:54;1;1;
70436;PMS5003;57877;39.750;-104.894;2023-06-26T07:25:19;0;0;
70436;PMS5003;57877;39.750;-104.894;2023-06-26T07:27:44;0;0;
70436;PMS5003;57877;39.750;-104.894;2023-06-26T07:30:09;0;0;
70436;PMS5003;57877;39.750;-104.894;2023-06-26T07:32:34;0;0;
70436;PMS5003;57877;39.750;-104.894;2023-06-26T07:34:59;0;0;
70436;PMS5003;57877;39.750;-104.894;2023-06-26T07:37:24;0;0;
70436;PMS5003;57877;39.750;-104.894;2023-06-26T07:39:49;0;0;
70436;PMS5003;57877;39.750;-104.894;2023-06-26T07:42:14;0;0;
70436;PMS5003;57877;39.750;-104.894;2023-06-26T07:44:39;1;1;
70436;PMS5003;57877;39.750;-104.894;2023-06-26T07:47:04;0;0;
70436;PMS5003;57877;39.750;-104.894;2023-06-26T07:49:29;0;0;
70436;PMS5003;57877;39.750;-104.894;2023-06-26T07:51:54;0;0;
70436;PMS5003;57877;39.750;-104.894;2023-06-26T07:54:19;0;0;
70436;PMS5003;57877;39.750;-104.894;2023-06-26T07:59:09;0;0;
70436;PMS5003;57877;39.750;-104.894;2023-06-26T08:01:34;0;0;
70436;PMS5003;57877;39.750;-104.894;2023-06-26T08:03:59;1;1;
70436;PMS5003;57877;39.750;-104.894;2023-06-26T08:06:24;0;0;
70436;PMS5003;57877;39.750;-104.894;2023-06-26T08:08:49;0;0;
70436;PMS5003;57877;39.750;-104.894;2023-06-26T08:11:14;0;0;
70436;PMS5003;57877;39.750;-104.894;2023-06-26T08:13:39;1;0;
70436;PMS5003;57877;39.750;-104.894;2023-06-26T08:16:04;0;0;
70436;PMS5003;57877;39.750;-104.894;2023-06-26T08:18:29;0;0;
70436;PMS5003;57877;39.750;-104.894;2023-06-26T08:20:55;0;0;
70436;PMS5003;57877;39.750;-104.894;2023-06-26T08:23:19;0;0;
70436;PMS5003;57877;39.750;-104.894;2023-06-26T08:25:44;0;0;
70436;PMS5003;57877;39.750;-104.894;2023-06-26T08:28:09;1;1;
70436;PMS5003;57877;39.750;-104.894;2023-06-26T08:30:34;1;1;
70436;PMS5003;57877;39.750;-104.894;2023-06-26T08:32:59;0;0;
70436;PMS5003;57877;39.750;-104.894;2023-06-26T08:35:24;0;0;
70436;PMS5003;57877;39.750;-104.894;2023-06-26T08:37:50;0;0;
70436;PMS5003;57877;39.750;-104.894;2023-06-26T08:40:16;1;0;
70436;PMS5003;57877;39.750;-104.894;2023-06-26T08:42:40;0;0;
70436;PMS5003;57877;39.750;-104.894;2023-06-26T08:45:05;1;1;
70436;PMS5003;57877;39.750;-104.894;2023-06-26T08:47:30;0;0;
70436;PMS5003;57877;39.750;-104.894;2023-06-26T08:49:58;0;0;
70436;PMS5003;57877;39.750;-104.894;2023-06-26T08:52:22;2;1;
70436;PMS5003;57877;39.750;-104.894;2023-06-26T08:54:45;1;0;
70436;PMS5003;57877;39.750;-104.894;2023-06-26T08:57:10;1;1;
70436;PMS5003;57877;39.750;-104.894;2023-06-26T08:59:35;0;0;
70436;PMS5003;57877;39.750;-104.894;2023-06-26T09:02:00;1;1;
70436;PMS5003;57877;39.750;-104.894;2023-06-26T09:04:25;1;0;
70436;PMS5003;57877;39.750;-104.894;2023-06-26T09:06:50;2;1;
70436;PMS5003;57877;39.750;-104.894;2023-06-26T09:09:15;0;0;
70436;PMS5003;57877;39.750;-104.894;2023-06-26T09:11:40;1;0;
70436;PMS5003;57877;39.750;-104.894;2023-06-26T09:14:05;0;0;
70436;PMS5003;57877;39.750;-104.894;2023-06-26T09:16:30;1;1;
70436;PMS5003;57877;39.750;-104.894;2023-06-26T09:18:55;1;0;
70436;PMS5003;57877;39.750;-104.894;2023-06-26T09:21:21;1;1;
70436;PMS5003;57877;39.750;-104.894;2023-06-26T09:23:45;0;0;
70436;PMS5003;57877;39.750;-104.894;2023-06-26T09:26:11;1;1;
70436;PMS5003;57877;39.750;-104.894;2023-06-26T09:28:36;1;1;
70436;PMS5003;57877;39.750;-104.894;2023-06-26T09:31:01;0;0;
70436;PMS5003;57877;39.750;-104.894;2023-06-26T09:33:25;0;0;
70436;PMS5003;57877;39.750;-104.894;2023-06-26T09:35:50;0;0;
70436;PMS5003;57877;39.750;-104.894;2023-06-26T09:38:15;0;0;
70436;PMS5003;57877;39.750;-104.894;2023-06-26T09:40:40;2;2;
70436;PMS5003;57877;39.750;-104.894;2023-06-26T09:43:06;0;0;
70436;PMS5003;57877;39.750;-104.894;2023-06-26T09:45:31;0;0;
70436;PMS5003;57877;39.750;-104.894;2023-06-26T09:47:58;1;1;
70436;PMS5003;57877;39.750;-104.894;2023-06-26T09:50:22;1;0;
70436;PMS5003;57877;39.750;-104.894;2023-06-26T09:52:47;0;0;
70436;PMS5003;57877;39.750;-104.894;2023-06-26T09:55:14;0;0;
70436;PMS5003;57877;39.750;-104.894;2023-06-26T09:57:39;0;0;
70436;PMS5003;57877;39.750;-104.894;2023-06-26T10:00:04;0;0;
70436;PMS5003;57877;39.750;-104.894;2023-06-26T10:02:30;1;1;
70436;PMS5003;57877;39.750;-104.894;2023-06-26T10:04:56;0;0;
70436;PMS5003;57877;39.750;-104.894;2023-06-26T10:07:22;0;0;
70436;PMS5003;57877;39.750;-104.894;2023-06-26T10:09:52;2;2;
70436;PMS5003;57877;39.750;-104.894;2023-06-26T10:12:14;0;0;
70436;PMS5003;57877;39.750;-104.894;2023-06-26T10:14:37;0;0;
70436;PMS5003;57877;39.750;-104.894;2023-06-26T10:17:03;0;0;
70436;PMS5003;57877;39.750;-104.894;2023-06-26T10:19:27;0;0;
70436;PMS5003;57877;39.750;-104.894;2023-06-26T10:21:52;1;0;
70436;PMS5003;57877;39.750;-104.894;2023-06-26T10:24:17;1;1;
70436;PMS5003;57877;39.750;-104.894;2023-06-26T10:26:44;0;0;
70436;PMS5003;57877;39.750;-104.894;2023-06-26T10:29:08;0;0;
70436;PMS5003;57877;39.750;-104.894;2023-06-26T10:31:33;1;1;
70436;PMS5003;57877;39.750;-104.894;2023-06-26T10:33:58;0;0;
70436;PMS5003;57877;39.750;-104.894;2023-06-26T10:36:27;0;0;
70436;PMS5003;57877;39.750;-104.894;2023-06-26T10:38:48;0;0;
70436;PMS5003;57877;39.750;-104.894;2023-06-26T10:41:15;1;1;
70436;PMS5003;57877;39.750;-104.894;2023-06-26T10:43:39;0;0;
70436;PMS5003;57877;39.750;-104.894;2023-06-26T10:46:04;0;0;
70436;PMS5003;57877;39.750;-104.894;2023-06-26T10:48:29;0;0;
70436;PMS5003;57877;39.750;-104.894;2023-06-26T10:50:54;0;0;
70436;PMS5003;57877;39.750;-104.894;2023-06-26T10:53:22;1;1;
70436;PMS5003;57877;39.750;-104.894;2023-06-26T10:55:48;0;0;
70436;PMS5003;57877;39.750;-104.894;2023-06-26T11:00:35;0;0;
70436;PMS5003;57877;39.750;-104.894;2023-06-26T11:03:00;0;0;
70436;PMS5003;57877;39.750;-104.894;2023-06-26T11:05:25;1;1;
70436;PMS5003;57877;39.750;-104.894;2023-06-26T11:10:15;0;0;
70436;PMS5003;57877;39.750;-104.894;2023-06-26T11:12:41;1;1;
70436;PMS5003;57877;39.750;-104.894;2023-06-26T11:15:07;1;1;
70436;PMS5003;57877;39.750;-104.894;2023-06-26T11:17:31;2;2;
70436;PMS5003;57877;39.750;-104.894;2023-06-26T11:19:55;3;3;
70436;PMS5003;57877;39.750;-104.894;2023-06-26T11:22:21;2;2;
70436;PMS5003;57877;39.750;-104.894;2023-06-26T11:24:46;3;2;
70436;PMS5003;57877;39.750;-104.894;2023-06-26T11:27:11;1;1;
70436;PMS5003;57877;39.750;-104.894;2023-06-26T11:29:36;1;1;
70436;PMS5003;57877;39.750;-104.894;2023-06-26T11:32:02;4;4;
70436;PMS5003;57877;39.750;-104.894;2023-06-26T11:34:29;3;2;
70436;PMS5003;57877;39.750;-104.894;2023-06-26T11:36:51;2;2;
70436;PMS5003;57877;39.750;-104.894;2023-06-26T11:39:16;1;1;
70436;PMS5003;57877;39.750;-104.894;2023-06-26T11:41:41;3;1;
70436;PMS5003;57877;39.750;-104.894;2023-06-26T11:44:06;1;1;
70436;PMS5003;57877;39.750;-104.894;2023-06-26T11:46:31;4;3;
70436;PMS5003;57877;39.750;-104.894;2023-06-26T11:48:57;2;2;
70436;PMS5003;57877;39.750;-104.894;2023-06-26T11:51:22;2;2;
70436;PMS5003;57877;39.750;-104.894;2023-06-26T11:53:47;2;2;
70436;PMS5003;57877;39.750;-104.894;2023-06-26T11:56:12;2;2;
70436;PMS5003;57877;39.750;-104.894;2023-06-26T11:58:37;2;1;
70436;PMS5003;57877;39.750;-104.894;2023-06-26T12:01:02;4;4;
70436;PMS5003;57877;39.750;-104.894;2023-06-26T12:03:27;2;2;
70436;PMS5003;57877;39.750;-104.894;2023-06-26T12:05:52;4;4;
70436;PMS5003;57877;39.750;-104.894;2023-06-26T12:08:17;4;4;
70436;PMS5003;57877;39.750;-104.894;2023-06-26T12:10:42;4;4;
70436;PMS5003;57877;39.750;-104.894;2023-06-26T12:13:07;3;3;
70436;PMS5003;57877;39.750;-104.894;2023-06-26T12:15:32;4;4;
70436;PMS5003;57877;39.750;-104.894;2023-06-26T12:17:57;5;5;
70436;PMS5003;57877;39.750;-104.894;2023-06-26T12:20:23;2;2;
70436;PMS5003;57877;39.750;-104.894;2023-06-26T12:22:47;4;3;
70436;PMS5003;57877;39.750;-104.894;2023-06-26T12:25:13;4;4;
70436;PMS5003;57877;39.750;-104.894;2023-06-26T12:27:38;4;4;
70436;PMS5003;57877;39.750;-104.894;2023-06-26T12:30:04;5;5;
70436;PMS5003;57877;39.750;-104.894;2023-06-26T12:32:28;5;5;
70436;PMS5003;57877;39.750;-104.894;2023-06-26T12:34:53;5;5;
70436;PMS5003;57877;39.750;-104.894;2023-06-26T12:37:18;7;6;
70436;PMS5003;57877;39.750;-104.894;2023-06-26T12:39:48;3;3;
70436;PMS5003;57877;39.750;-104.894;2023-06-26T12:42:08;5;5;
70436;PMS5003;57877;39.750;-104.894;2023-06-26T12:44:34;4;4;
70436;PMS5003;57877;39.750;-104.894;2023-06-26T12:46:59;5;5;
70436;PMS5003;57877;39.750;-104.894;2023-06-26T12:51:49;7;7;
70436;PMS5003;57877;39.750;-104.894;2023-06-26T12:54:14;8;8;
70436;PMS5003;57877;39.750;-104.894;2023-06-26T12:56:39;6;6;
70436;PMS5003;57877;39.750;-104.894;2023-06-26T12:59:04;8;5;
70436;PMS5003;57877;39.750;-104.894;2023-06-26T13:01:29;5;5;
70436;PMS5003;57877;39.750;-104.894;2023-06-26T13:03:54;6;5;
70436;PMS5003;57877;39.750;-104.894;2023-06-26T13:06:19;6;5;
70436;PMS5003;57877;39.750;-104.894;2023-06-26T13:08:44;6;6;
70436;PMS5003;57877;39.750;-104.894;2023-06-26T13:11:09;6;5;
70436;PMS5003;57877;39.750;-104.894;2023-06-26T13:13:34;6;6;
70436;PMS5003;57877;39.750;-104.894;2023-06-26T13:15:59;8;7;
70436;PMS5003;57877;39.750;-104.894;2023-06-26T13:18:24;6;6;
70436;PMS5003;57877;39.750;-104.894;2023-06-26T13:20:49;7;7;
70436;PMS5003;57877;39.750;-104.894;2023-06-26T13:23:14;7;7;
70436;PMS5003;57877;39.750;-104.894;2023-06-26T13:25:39;8;7;
70436;PMS5003;57877;39.750;-104.894;2023-06-26T13:28:04;7;7;
70436;PMS5003;57877;39.750;-104.894;2023-06-26T13:30:29;6;6;
70436;PMS5003;57877;39.750;-104.894;2023-06-26T13:32:54;6;5;
70436;PMS5003;57877;39.750;-104.894;2023-06-26T13:35:20;4;4;
70436;PMS5003;57877;39.750;-104.894;2023-06-26T13:37:44;7;7;
70436;PMS5003;57877;39.750;-104.894;2023-06-26T13:40:10;9;7;
70436;PMS5003;57877;39.750;-104.894;2023-06-26T13:42:35;7;7;
70436;PMS5003;57877;39.750;-104.894;2023-06-26T13:45:00;6;6;
70436;PMS5003;57877;39.750;-104.894;2023-06-26T13:47:25;8;8;
70436;PMS5003;57877;39.750;-104.894;2023-06-26T13:49:50;8;8;
70436;PMS5003;57877;39.750;-104.894;2023-06-26T13:52:15;6;6;
70436;PMS5003;57877;39.750;-104.894;2023-06-26T13:54:40;7;6;
70436;PMS5003;57877;39.750;-104.894;2023-06-26T13:57:05;7;7;
70436;PMS5003;57877;39.750;-104.894;2023-06-26T13:59:30;8;7;
70436;PMS5003;57877;39.750;-104.894;2023-06-26T14:01:55;8;6;
70436;PMS5003;57877;39.750;-104.894;2023-06-26T14:04:20;8;7;
70436;PMS5003;57877;39.750;-104.894;2023-06-26T14:06:45;9;7;
70436;PMS5003;57877;39.750;-104.894;2023-06-26T14:09:10;8;8;
70436;PMS5003;57877;39.750;-104.894;2023-06-26T14:11:35;11;8;
70436;PMS5003;57877;39.750;-104.894;2023-06-26T14:14:00;8;7;
70436;PMS5003;57877;39.750;-104.894;2023-06-26T14:16:25;7;6;
70436;PMS5003;57877;39.750;-104.894;2023-06-26T14:18:50;8;8;
70436;PMS5003;57877;39.750;-104.894;2023-06-26T14:21:15;7;7;
70436;PMS5003;57877;39.750;-104.894;2023-06-26T14:23:41;8;8;
70436;PMS5003;57877;39.750;-104.894;2023-06-26T14:26:06;10;10;
70436;PMS5003;57877;39.750;-104.894;2023-06-26T14:28:31;10;9;
70436;PMS5003;57877;39.750;-104.894;2023-06-26T14:30:56;7;6;
70436;PMS5003;57877;39.750;-104.894;2023-06-26T14:33:21;8;7;
70436;PMS5003;57877;39.750;-104.894;2023-06-26T14:35:46;8;7;
70436;PMS5003;57877;39.750;-104.894;2023-06-26T14:38:11;8;8;
70436;PMS5003;57877;39.750;-104.894;2023-06-26T14:40:36;8;8;
70436;PMS5003;57877;39.750;-104.894;2023-06-26T14:43:01;8;8;
70436;PMS5003;57877;39.750;-104.894;2023-06-26T14:45:26;9;9;
70436;PMS5003;57877;39.750;-104.894;2023-06-26T14:47:51;10;10;
70436;PMS5003;57877;39.750;-104.894;2023-06-26T14:50:16;8;8;
70436;PMS5003;57877;39.750;-104.894;2023-06-26T14:52:42;8;7;
70436;PMS5003;57877;39.750;-104.894;2023-06-26T14:55:07;7;7;
70436;PMS5003;57877;39.750;-104.894;2023-06-26T14:57:34;8;8;
70436;PMS5003;57877;39.750;-104.894;2023-06-26T14:59:59;6;6;
70436;PMS5003;57877;39.750;-104.894;2023-06-26T15:02:25;5;5;
70436;PMS5003;57877;39.750;-104.894;2023-06-26T15:04:51;7;7;
70436;PMS5003;57877;39.750;-104.894;2023-06-26T15:07:16;9;9;
70436;PMS5003;57877;39.750;-104.894;2023-06-26T15:09:43;7;7;
70436;PMS5003;57877;39.750;-104.894;2023-06-26T15:12:07;7;7;
70436;PMS5003;57877;39.750;-104.894;2023-06-26T15:14:33;9;8;
70436;PMS5003;57877;39.750;-104.894;2023-06-26T15:16:58;8;7;
70436;PMS5003;57877;39.750;-104.894;2023-06-26T15:19:23;8;8;
70436;PMS5003;57877;39.750;-104.894;2023-06-26T15:21:48;8;8;
70436;PMS5003;57877;39.750;-104.894;2023-06-26T15:24:13;6;6;
70436;PMS5003;57877;39.750;-104.894;2023-06-26T15:26:39;6;6;
70436;PMS5003;57877;39.750;-104.894;2023-06-26T15:29:09;4;4;
70436;PMS5003;57877;39.750;-104.894;2023-06-26T15:31:29;6;6;
70436;PMS5003;57877;39.750;-104.894;2023-06-26T15:33:54;4;4;
70436;PMS5003;57877;39.750;-104.894;2023-06-26T15:36:19;3;3;
70436;PMS5003;57877;39.750;-104.894;2023-06-26T15:38:44;4;4;
70436;PMS5003;57877;39.750;-104.894;2023-06-26T15:41:09;2;2;
70436;PMS5003;57877;39.750;-104.894;2023-06-26T15:43:34;3;3;
70436;PMS5003;57877;39.750;-104.894;2023-06-26T15:45:59;5;4;
70436;PMS5003;57877;39.750;-104.894;2023-06-26T15:48:24;3;3;
70436;PMS5003;57877;39.750;-104.894;2023-06-26T15:50:49;3;2;
70436;PMS5003;57877;39.750;-104.894;2023-06-26T15:53:15;4;3;
70436;PMS5003;57877;39.750;-104.894;2023-06-26T15:55:39;2;2;
70436;PMS5003;57877;39.750;-104.894;2023-06-26T15:58:05;3;3;
70436;PMS5003;57877;39.750;-104.894;2023-06-26T16:00:30;3;2;
70436;PMS5003;57877;39.750;-104.894;2023-06-26T16:02:55;3;3;
70436;PMS5003;57877;39.750;-104.894;2023-06-26T16:05:20;1;1;
70436;PMS5003;57877;39.750;-104.894;2023-06-26T16:07:45;3;3;
70436;PMS5003;57877;39.750;-104.894;2023-06-26T16:10:10;3;3;
70436;PMS5003;57877;39.750;-104.894;2023-06-26T16:12:36;2;2;
70436;PMS5003;57877;39.750;-104.894;2023-06-26T16:15:01;2;2;
70436;PMS5003;57877;39.750;-104.894;2023-06-26T16:17:26;4;4;
70436;PMS5003;57877;39.750;-104.894;2023-06-26T16:19:51;3;3;
70436;PMS5003;57877;39.750;-104.894;2023-06-26T16:22:16;4;4;
70436;PMS5003;57877;39.750;-104.894;2023-06-26T16:24:41;5;5;
70436;PMS5003;57877;39.750;-104.894;2023-06-26T16:27:06;5;3;
70436;PMS5003;57877;39.750;-104.894;2023-06-26T16:29:32;2;2;
70436;PMS5003;57877;39.750;-104.894;2023-06-26T16:31:57;3;3;
70436;PMS5003;57877;39.750;-104.894;2023-06-26T16:34:22;2;2;
70436;PMS5003;57877;39.750;-104.894;2023-06-26T16:36:47;3;3;
70436;PMS5003;57877;39.750;-104.894;2023-06-26T16:39:13;3;3;
70436;PMS5003;57877;39.750;-104.894;2023-06-26T16:41:37;3;3;
70436;PMS5003;57877;39.750;-104.894;2023-06-26T16:44:03;4;4;
70436;PMS5003;57877;39.750;-104.894;2023-06-26T16:46:28;4;3;
70436;PMS5003;57877;39.750;-104.894;2023-06-26T16:48:53;2;2;
70436;PMS5003;57877;39.750;-104.894;2023-06-26T16:51:18;2;2;
70436;PMS5003;57877;39.750;-104.894;2023-06-26T16:53:43;3;3;
70436;PMS5003;57877;39.750;-104.894;2023-06-26T16:56:08;4;4;
70436;PMS5003;57877;39.750;-104.894;2023-06-26T16:58:34;3;3;
70436;PMS5003;57877;39.750;-104.894;2023-06-26T17:00:59;2;2;
70436;PMS5003;57877;39.750;-104.894;2023-06-26T17:03:24;3;3;
70436;PMS5003;57877;39.750;-104.894;2023-06-26T17:05:49;3;2;
70436;PMS5003;57877;39.750;-104.894;2023-06-26T17:08:15;4;4;
70436;PMS5003;57877;39.750;-104.894;2023-06-26T17:10:40;4;4;
70436;PMS5003;57877;39.750;-104.894;2023-06-26T17:13:05;3;3;
70436;PMS5003;57877;39.750;-104.894;2023-06-26T17:15:30;3;3;
70436;PMS5003;57877;39.750;-104.894;2023-06-26T17:17:55;5;3;
70436;PMS5003;57877;39.750;-104.894;2023-06-26T17:20:20;4;4;